sensor_id;sensor_type;location;lat;lon;timestamp;temperature;humidity
23591;DHT22;11973;52.098;7.582;2022-11-20T00:01:20;-4.10;94.90
23591;DHT22;11973;52.098;7.582;2022-11-20T00:03:46;-4.10;94.90
23591;DHT22;11973;52.098;7.582;2022-11-20T00:06:16;-4.20;94.90
23591;DHT22;11973;52.098;7.582;2022-11-20T00:08:43;-4.20;94.80
23591;DHT22;11973;52.098;7.582;2022-11-20T00:11:17;-4.20;94.80
23591;DHT22;11973;52.098;7.582;2022-11-20T00:13:44;-4.20;94.80
23591;DHT22;11973;52.098;7.582;2022-11-20T00:16:12;-4.20;94.80
23591;DHT22;11973;52.098;7.582;2022-11-20T00:18:38;-4.30;94.80
23591;DHT22;11973;52.098;7.582;2022-11-20T00:21:10;-4.30;94.80
23591;DHT22;11973;52.098;7.582;2022-11-20T00:23:36;-4.30;94.80
23591;DHT22;11973;52.098;7.582;2022-11-20T00:26:07;-4.30;94.70
23591;DHT22;11973;52.098;7.582;2022-11-20T00:28:33;-4.30;94.70
23591;DHT22;11973;52.098;7.582;2022-11-20T00:31:03;-4.30;94.70
23591;DHT22;11973;52.098;7.582;2022-11-20T00:33:30;-4.40;94.70
23591;DHT22;11973;52.098;7.582;2022-11-20T00:36:16;-4.40;94.70
23591;DHT22;11973;52.098;7.582;2022-11-20T00:38:43;-4.40;94.80
23591;DHT22;11973;52.098;7.582;2022-11-20T00:41:11;-4.40;94.80
23591;DHT22;11973;52.098;7.582;2022-11-20T00:43:37;-4.40;94.70
23591;DHT22;11973;52.098;7.582;2022-11-20T00:46:06;-4.40;94.70
23591;DHT22;11973;52.098;7.582;2022-11-20T00:48:32;-4.40;94.70
23591;DHT22;11973;52.098;7.582;2022-11-20T00:50:58;-4.40;94.80
23591;DHT22;11973;52.098;7.582;2022-11-20T00:53:24;-4.50;94.70
23591;DHT22;11973;52.098;7.582;2022-11-20T00:55:57;-4.50;94.70
23591;DHT22;11973;52.098;7.582;2022-11-20T00:58:24;-4.50;94.80
23591;DHT22;11973;52.098;7.582;2022-11-20T01:00:50;-4.50;94.80
23591;DHT22;11973;52.098;7.582;2022-11-20T01:03:17;-4.50;94.80
23591;DHT22;11973;52.098;7.582;2022-11-20T01:05:43;-4.50;94.80
23591;DHT22;11973;52.098;7.582;2022-11-20T01:08:09;-4.50;94.80
23591;DHT22;11973;52.098;7.582;2022-11-20T01:10:35;-4.50;94.80
23591;DHT22;11973;52.098;7.582;2022-11-20T01:13:01;-4.50;94.80
23591;DHT22;11973;52.098;7.582;2022-11-20T01:15:45;-4.50;94.80
23591;DHT22;11973;52.098;7.582;2022-11-20T01:18:11;-4.50;94.80
23591;DHT22;11973;52.098;7.582;2022-11-20T01:20:36;-4.60;94.80
23591;DHT22;11973;52.098;7.582;2022-11-20T01:23:03;-4.60;94.80
23591;DHT22;11973;52.098;7.582;2022-11-20T01:25:30;-4.60;94.80
23591;DHT22;11973;52.098;7.582;2022-11-20T01:27:56;-4.60;94.80
23591;DHT22;11973;52.098;7.582;2022-11-20T01:30:21;-4.60;94.70
23591;DHT22;11973;52.098;7.582;2022-11-20T01:32:47;-4.60;94.70
23591;DHT22;11973;52.098;7.582;2022-11-20T01:35:13;-4.60;94.70
23591;DHT22;11973;52.098;7.582;2022-11-20T01:37:38;-4.60;94.70
23591;DHT22;11973;52.098;7.582;2022-11-20T01:40:05;-4.60;94.70
23591;DHT22;11973;52.098;7.582;2022-11-20T01:42:31;-4.60;94.70
23591;DHT22;11973;52.098;7.582;2022-11-20T01:48:12;-4.70;94.50
23591;DHT22;11973;52.098;7.582;2022-11-20T01:50:40;-4.70;94.50
23591;DHT22;11973;52.098;7.582;2022-11-20T01:53:09;-4.70;94.50
23591;DHT22;11973;52.098;7.582;2022-11-20T01:55:39;-4.70;94.50
23591;DHT22;11973;52.098;7.582;2022-11-20T01:58:07;-4.80;94.40
23591;DHT22;11973;52.098;7.582;2022-11-20T02:00:33;-4.80;94.40
23591;DHT22;11973;52.098;7.582;2022-11-20T02:03:07;-4.80;94.40
23591;DHT22;11973;52.098;7.582;2022-11-20T02:06:04;-4.80;94.50
23591;DHT22;11973;52.098;7.582;2022-11-20T02:08:30;-4.80;94.50
23591;DHT22;11973;52.098;7.582;2022-11-20T02:10:56;-4.80;94.50
23591;DHT22;11973;52.098;7.582;2022-11-20T02:13:22;-4.80;94.40
23591;DHT22;11973;52.098;7.582;2022-11-20T02:16:11;-4.80;94.40
23591;DHT22;11973;52.098;7.582;2022-11-20T02:18:39;-4.90;94.30
23591;DHT22;11973;52.098;7.582;2022-11-20T02:21:15;-4.90;94.30
23591;DHT22;11973;52.098;7.582;2022-11-20T02:24:11;-4.90;94.30
23591;DHT22;11973;52.098;7.582;2022-11-20T02:26:51;-4.90;94.30
23591;DHT22;11973;52.098;7.582;2022-11-20T02:29:26;-5.00;94.20
23591;DHT22;11973;52.098;7.582;2022-11-20T02:31:53;-5.00;94.20
23591;DHT22;11973;52.098;7.582;2022-11-20T02:34:20;-5.00;94.30
23591;DHT22;11973;52.098;7.582;2022-11-20T02:36:46;-5.00;94.20
23591;DHT22;11973;52.098;7.582;2022-11-20T02:39:15;-5.00;94.30
23591;DHT22;11973;52.098;7.582;2022-11-20T02:41:42;-5.00;94.30
23591;DHT22;11973;52.098;7.582;2022-11-20T02:44:08;-5.10;94.20
23591;DHT22;11973;52.098;7.582;2022-11-20T02:46:34;-5.10;94.20
23591;DHT22;11973;52.098;7.582;2022-11-20T02:49:02;-5.10;94.20
23591;DHT22;11973;52.098;7.582;2022-11-20T02:51:28;-5.10;94.20
23591;DHT22;11973;52.098;7.582;2022-11-20T02:53:54;-5.10;94.10
23591;DHT22;11973;52.098;7.582;2022-11-20T02:56:20;-5.10;94.10
23591;DHT22;11973;52.098;7.582;2022-11-20T02:58:46;-5.10;94.20
23591;DHT22;11973;52.098;7.582;2022-11-20T03:01:11;-5.10;94.50
23591;DHT22;11973;52.098;7.582;2022-11-20T03:03:37;-5.10;94.20
23591;DHT22;11973;52.098;7.582;2022-11-20T03:06:03;-5.20;94.10
23591;DHT22;11973;52.098;7.582;2022-11-20T03:08:29;-5.20;94.10
23591;DHT22;11973;52.098;7.582;2022-11-20T03:10:54;-5.20;94.10
23591;DHT22;11973;52.098;7.582;2022-11-20T03:13:20;-5.20;94.10
23591;DHT22;11973;52.098;7.582;2022-11-20T03:15:46;-5.20;94.00
23591;DHT22;11973;52.098;7.582;2022-11-20T03:18:11;-5.20;94.10
23591;DHT22;11973;52.098;7.582;2022-11-20T03:20:39;-5.20;94.10
23591;DHT22;11973;52.098;7.582;2022-11-20T03:23:04;-5.30;94.00
23591;DHT22;11973;52.098;7.582;2022-11-20T03:25:31;-5.30;94.00
23591;DHT22;11973;52.098;7.582;2022-11-20T03:27:56;-5.30;94.00
23591;DHT22;11973;52.098;7.582;2022-11-20T03:30:22;-5.30;94.10
23591;DHT22;11973;52.098;7.582;2022-11-20T03:32:47;-5.30;94.10
23591;DHT22;11973;52.098;7.582;2022-11-20T03:35:13;-5.30;94.10
23591;DHT22;11973;52.098;7.582;2022-11-20T03:37:39;-5.30;94.00
23591;DHT22;11973;52.098;7.582;2022-11-20T03:40:05;-5.30;94.30
23591;DHT22;11973;52.098;7.582;2022-11-20T03:42:31;-5.30;94.00
23591;DHT22;11973;52.098;7.582;2022-11-20T03:45:17;-5.40;93.90
23591;DHT22;11973;52.098;7.582;2022-11-20T03:47:43;-5.40;93.90
23591;DHT22;11973;52.098;7.582;2022-11-20T03:50:10;-5.40;93.90
23591;DHT22;11973;52.098;7.582;2022-11-20T03:52:38;-5.40;93.90
23591;DHT22;11973;52.098;7.582;2022-11-20T03:55:04;-5.40;93.90
23591;DHT22;11973;52.098;7.582;2022-11-20T03:57:30;-5.40;93.90
23591;DHT22;11973;52.098;7.582;2022-11-20T03:59:56;-5.40;93.90
23591;DHT22;11973;52.098;7.582;2022-11-20T04:02:21;-5.50;93.80
23591;DHT22;11973;52.098;7.582;2022-11-20T04:04:47;-5.50;93.90
23591;DHT22;11973;52.098;7.582;2022-11-20T04:07:13;-5.50;93.90
23591;DHT22;11973;52.098;7.582;2022-11-20T04:09:38;-5.50;93.90
23591;DHT22;11973;52.098;7.582;2022-11-20T04:12:04;-5.50;93.80
23591;DHT22;11973;52.098;7.582;2022-11-20T04:14:30;-5.50;93.80
23591;DHT22;11973;52.098;7.582;2022-11-20T04:16:56;-5.50;93.80
23591;DHT22;11973;52.098;7.582;2022-11-20T04:19:21;-5.50;93.90
23591;DHT22;11973;52.098;7.582;2022-11-20T04:21:47;-5.50;93.80
23591;DHT22;11973;52.098;7.582;2022-11-20T04:24:13;-5.50;93.80
23591;DHT22;11973;52.098;7.582;2022-11-20T04:26:39;-5.60;93.80
23591;DHT22;11973;52.098;7.582;2022-11-20T04:29:05;-5.60;93.80
23591;DHT22;11973;52.098;7.582;2022-11-20T04:31:33;-5.60;93.80
23591;DHT22;11973;52.098;7.582;2022-11-20T04:34:04;-5.60;93.80
23591;DHT22;11973;52.098;7.582;2022-11-20T04:36:30;-5.60;93.80
23591;DHT22;11973;52.098;7.582;2022-11-20T04:38:58;-5.60;93.80
23591;DHT22;11973;52.098;7.582;2022-11-20T04:41:28;-5.60;93.80
23591;DHT22;11973;52.098;7.582;2022-11-20T04:43:56;-5.70;93.70
23591;DHT22;11973;52.098;7.582;2022-11-20T04:46:25;-5.60;93.70
23591;DHT22;11973;52.098;7.582;2022-11-20T04:48:51;-5.70;93.70
23591;DHT22;11973;52.098;7.582;2022-11-20T04:51:17;-5.70;93.70
23591;DHT22;11973;52.098;7.582;2022-11-20T04:53:43;-5.70;93.70
23591;DHT22;11973;52.098;7.582;2022-11-20T04:56:10;-5.70;93.70
23591;DHT22;11973;52.098;7.582;2022-11-20T04:58:37;-5.70;93.70
23591;DHT22;11973;52.098;7.582;2022-11-20T05:01:04;-5.70;93.70
23591;DHT22;11973;52.098;7.582;2022-11-20T05:03:30;-5.70;93.70
23591;DHT22;11973;52.098;7.582;2022-11-20T05:05:56;-5.70;93.70
23591;DHT22;11973;52.098;7.582;2022-11-20T05:08:21;-5.70;93.70
23591;DHT22;11973;52.098;7.582;2022-11-20T05:10:47;-5.80;93.60
23591;DHT22;11973;52.098;7.582;2022-11-20T05:13:13;-5.80;93.70
23591;DHT22;11973;52.098;7.582;2022-11-20T06:16:14;-6.10;93.40
23591;DHT22;11973;52.098;7.582;2022-11-20T06:18:41;-6.10;93.40
23591;DHT22;11973;52.098;7.582;2022-11-20T06:21:14;-6.10;93.40
23591;DHT22;11973;52.098;7.582;2022-11-20T06:23:41;-6.10;93.50
23591;DHT22;11973;52.098;7.582;2022-11-20T06:26:08;-6.10;93.50
23591;DHT22;11973;52.098;7.582;2022-11-20T06:28:34;-6.10;93.50
23591;DHT22;11973;52.098;7.582;2022-11-20T06:31:00;-6.20;93.40
23591;DHT22;11973;52.098;7.582;2022-11-20T06:33:27;-6.20;93.40
23591;DHT22;11973;52.098;7.582;2022-11-20T06:35:56;-6.20;93.40
23591;DHT22;11973;52.098;7.582;2022-11-20T06:38:22;-6.20;93.40
23591;DHT22;11973;52.098;7.582;2022-11-20T06:40:47;-6.20;93.40
23591;DHT22;11973;52.098;7.582;2022-11-20T06:43:13;-6.20;93.40
23591;DHT22;11973;52.098;7.582;2022-11-20T06:45:39;-6.20;93.30
23591;DHT22;11973;52.098;7.582;2022-11-20T06:48:05;-6.20;93.40
23591;DHT22;11973;52.098;7.582;2022-11-20T06:50:30;-6.20;93.40
23591;DHT22;11973;52.098;7.582;2022-11-20T06:52:56;-6.20;93.40
23591;DHT22;11973;52.098;7.582;2022-11-20T06:55:22;-6.20;93.40
23591;DHT22;11973;52.098;7.582;2022-11-20T06:57:47;-6.20;93.40
23591;DHT22;11973;52.098;7.582;2022-11-20T07:00:13;-6.20;93.40
23591;DHT22;11973;52.098;7.582;2022-11-20T07:02:39;-6.20;93.40
23591;DHT22;11973;52.098;7.582;2022-11-20T07:05:05;-6.30;93.40
23591;DHT22;11973;52.098;7.582;2022-11-20T07:07:30;-6.20;93.50
23591;DHT22;11973;52.098;7.582;2022-11-20T07:09:56;-6.20;93.50
23591;DHT22;11973;52.098;7.582;2022-11-20T07:12:22;-6.20;93.50
23591;DHT22;11973;52.098;7.582;2022-11-20T07:14:47;-6.20;93.90
23591;DHT22;11973;52.098;7.582;2022-11-20T07:17:13;-6.20;93.60
23591;DHT22;11973;52.098;7.582;2022-11-20T07:19:39;-6.20;93.60
23591;DHT22;11973;52.098;7.582;2022-11-20T07:22:05;-6.20;93.60
23591;DHT22;11973;52.098;7.582;2022-11-20T07:24:30;-6.20;93.60
23591;DHT22;11973;52.098;7.582;2022-11-20T07:26:56;-6.20;93.70
23591;DHT22;11973;52.098;7.582;2022-11-20T07:29:22;-6.20;93.80
23591;DHT22;11973;52.098;7.582;2022-11-20T07:31:47;-6.10;94.00
23591;DHT22;11973;52.098;7.582;2022-11-20T07:34:13;-6.10;94.10
23591;DHT22;11973;52.098;7.582;2022-11-20T07:36:39;-6.00;94.40
23591;DHT22;11973;52.098;7.582;2022-11-20T07:39:05;-5.90;94.70
23591;DHT22;11973;52.098;7.582;2022-11-20T07:41:30;-5.90;94.90
23591;DHT22;11973;52.098;7.582;2022-11-20T07:43:56;-5.80;95.10
23591;DHT22;11973;52.098;7.582;2022-11-20T07:46:22;-5.70;95.40
23591;DHT22;11973;52.098;7.582;2022-11-20T07:48:48;-5.60;95.60
23591;DHT22;11973;52.098;7.582;2022-11-20T07:51:13;-5.50;95.80
23591;DHT22;11973;52.098;7.582;2022-11-20T07:53:39;-5.40;96.10
23591;DHT22;11973;52.098;7.582;2022-11-20T07:56:06;-5.30;96.30
23591;DHT22;11973;52.098;7.582;2022-11-20T07:58:39;-5.20;96.40
23591;DHT22;11973;52.098;7.582;2022-11-20T08:01:08;-5.10;96.60
23591;DHT22;11973;52.098;7.582;2022-11-20T08:03:34;-5.00;96.80
23591;DHT22;11973;52.098;7.582;2022-11-20T08:06:00;-4.90;96.90
23591;DHT22;11973;52.098;7.582;2022-11-20T08:08:33;-4.80;97.10
23591;DHT22;11973;52.098;7.582;2022-11-20T08:10:59;-4.70;97.20
23591;DHT22;11973;52.098;7.582;2022-11-20T08:13:45;-4.60;97.40
23591;DHT22;11973;52.098;7.582;2022-11-20T08:16:30;-4.50;97.50
23591;DHT22;11973;52.098;7.582;2022-11-20T08:18:58;-4.40;97.60
23591;DHT22;11973;52.098;7.582;2022-11-20T08:21:31;-4.30;97.80
23591;DHT22;11973;52.098;7.582;2022-11-20T08:23:59;-4.20;97.80
23591;DHT22;11973;52.098;7.582;2022-11-20T08:26:25;-4.10;98.00
23591;DHT22;11973;52.098;7.582;2022-11-20T08:28:57;-4.00;98.20
23591;DHT22;11973;52.098;7.582;2022-11-20T08:31:25;-3.90;98.40
23591;DHT22;11973;52.098;7.582;2022-11-20T08:33:51;-3.80;98.60
23591;DHT22;11973;52.098;7.582;2022-11-20T08:36:18;-3.70;98.70
23591;DHT22;11973;52.098;7.582;2022-11-20T08:39:02;-3.60;98.90
23591;DHT22;11973;52.098;7.582;2022-11-20T08:41:29;-3.50;99.10
23591;DHT22;11973;52.098;7.582;2022-11-20T08:44:03;-3.50;99.10
23591;DHT22;11973;52.098;7.582;2022-11-20T08:46:35;-3.30;99.30
23591;DHT22;11973;52.098;7.582;2022-11-20T08:49:05;-3.20;99.50
23591;DHT22;11973;52.098;7.582;2022-11-20T08:51:32;-3.20;99.90
23591;DHT22;11973;52.098;7.582;2022-11-20T08:53:58;-3.00;99.80
23591;DHT22;11973;52.098;7.582;2022-11-20T08:56:23;-2.90;99.90
23591;DHT22;11973;52.098;7.582;2022-11-20T08:58:50;-2.80;99.90
23591;DHT22;11973;52.098;7.582;2022-11-20T09:01:18;-2.70;99.90
23591;DHT22;11973;52.098;7.582;2022-11-20T09:03:44;-2.60;99.90
23591;DHT22;11973;52.098;7.582;2022-11-20T09:06:10;-2.50;99.90
23591;DHT22;11973;52.098;7.582;2022-11-20T09:08:36;-2.40;99.90
23591;DHT22;11973;52.098;7.582;2022-11-20T09:11:02;-2.40;99.90
23591;DHT22;11973;52.098;7.582;2022-11-20T09:13:29;-2.30;99.90
23591;DHT22;11973;52.098;7.582;2022-11-20T09:16:00;-2.10;99.90
23591;DHT22;11973;52.098;7.582;2022-11-20T09:18:27;-2.10;99.90
23591;DHT22;11973;52.098;7.582;2022-11-20T09:21:01;-2.00;99.90
23591;DHT22;11973;52.098;7.582;2022-11-20T09:23:31;-1.80;99.90
23591;DHT22;11973;52.098;7.582;2022-11-20T09:25:57;-1.80;99.90
23591;DHT22;11973;52.098;7.582;2022-11-20T09:28:28;-1.70;99.90
23591;DHT22;11973;52.098;7.582;2022-11-20T09:30:53;-1.60;99.90
23591;DHT22;11973;52.098;7.582;2022-11-20T09:33:22;-1.50;99.90
23591;DHT22;11973;52.098;7.582;2022-11-20T09:35:48;-1.40;99.90
23591;DHT22;11973;52.098;7.582;2022-11-20T09:38:13;-1.30;99.90
23591;DHT22;11973;52.098;7.582;2022-11-20T09:40:45;-1.20;99.90
23591;DHT22;11973;52.098;7.582;2022-11-20T09:49:42;-1.00;99.90
23591;DHT22;11973;52.098;7.582;2022-11-20T09:54:21;-0.80;99.90
23591;DHT22;11973;52.098;7.582;2022-11-20T09:57:01;-0.80;99.90
23591;DHT22;11973;52.098;7.582;2022-11-20T09:59:50;-0.70;99.90
23591;DHT22;11973;52.098;7.582;2022-11-20T10:07:37;-0.50;99.90
23591;DHT22;11973;52.098;7.582;2022-11-20T10:10:04;-0.50;99.90
23591;DHT22;11973;52.098;7.582;2022-11-20T10:13:03;-0.40;99.90
23591;DHT22;11973;52.098;7.582;2022-11-20T10:16:08;-0.40;99.90
23591;DHT22;11973;52.098;7.582;2022-11-20T10:29:33;0.00;99.90
23591;DHT22;11973;52.098;7.582;2022-11-20T10:32:17;0.00;99.90
23591;DHT22;11973;52.098;7.582;2022-11-20T10:34:46;0.00;99.90
23591;DHT22;11973;52.098;7.582;2022-11-20T10:37:23;0.10;99.90
23591;DHT22;11973;52.098;7.582;2022-11-20T10:42:36;0.20;99.90
23591;DHT22;11973;52.098;7.582;2022-11-20T10:48:20;0.20;99.90
23591;DHT22;11973;52.098;7.582;2022-11-20T11:02:22;0.20;99.90
23591;DHT22;11973;52.098;7.582;2022-11-20T11:04:52;0.20;99.90
23591;DHT22;11973;52.098;7.582;2022-11-20T11:07:28;0.20;99.90
23591;DHT22;11973;52.098;7.582;2022-11-20T11:09:56;0.20;99.90
23591;DHT22;11973;52.098;7.582;2022-11-20T11:12:25;0.10;99.90
23591;DHT22;11973;52.098;7.582;2022-11-20T11:14:54;0.10;99.90
23591;DHT22;11973;52.098;7.582;2022-11-20T11:17:25;0.10;99.90
23591;DHT22;11973;52.098;7.582;2022-11-20T11:22:32;0.20;99.90
23591;DHT22;11973;52.098;7.582;2022-11-20T11:24:58;0.20;99.90
23591;DHT22;11973;52.098;7.582;2022-11-20T11:27:24;0.10;99.90
23591;DHT22;11973;52.098;7.582;2022-11-20T11:29:50;0.10;99.90
23591;DHT22;11973;52.098;7.582;2022-11-20T11:32:26;0.10;99.90
23591;DHT22;11973;52.098;7.582;2022-11-20T11:35:03;0.20;99.90
23591;DHT22;11973;52.098;7.582;2022-11-20T11:37:34;0.20;99.90
23591;DHT22;11973;52.098;7.582;2022-11-20T11:40:01;0.20;99.90
23591;DHT22;11973;52.098;7.582;2022-11-20T11:42:28;0.20;99.90
23591;DHT22;11973;52.098;7.582;2022-11-20T11:44:56;0.20;99.90
23591;DHT22;11973;52.098;7.582;2022-11-20T11:47:36;0.30;99.90
23591;DHT22;11973;52.098;7.582;2022-11-20T11:53:00;0.40;99.90
23591;DHT22;11973;52.098;7.582;2022-11-20T11:58:41;0.60;99.90
23591;DHT22;11973;52.098;7.582;2022-11-20T12:01:34;0.70;99.90
23591;DHT22;11973;52.098;7.582;2022-11-20T12:04:14;0.80;99.90
23591;DHT22;11973;52.098;7.582;2022-11-20T12:06:50;1.00;99.90
23591;DHT22;11973;52.098;7.582;2022-11-20T12:09:18;1.20;99.90
23591;DHT22;11973;52.098;7.582;2022-11-20T12:11:51;1.30;99.90
23591;DHT22;11973;52.098;7.582;2022-11-20T12:14:42;1.50;99.90
23591;DHT22;11973;52.098;7.582;2022-11-20T12:17:12;1.70;99.90
23591;DHT22;11973;52.098;7.582;2022-11-20T12:19:38;1.90;99.90
23591;DHT22;11973;52.098;7.582;2022-11-20T12:22:38;2.10;99.90
23591;DHT22;11973;52.098;7.582;2022-11-20T12:30:15;2.50;99.90
23591;DHT22;11973;52.098;7.582;2022-11-20T12:35:59;2.60;99.90
23591;DHT22;11973;52.098;7.582;2022-11-20T12:53:44;2.60;99.90
23591;DHT22;11973;52.098;7.582;2022-11-20T12:59:27;2.60;99.90
23591;DHT22;11973;52.098;7.582;2022-11-20T13:07:21;2.50;99.90
23591;DHT22;11973;52.098;7.582;2022-11-20T13:09:49;2.40;99.90
23591;DHT22;11973;52.098;7.582;2022-11-20T13:12:31;2.30;99.90
23591;DHT22;11973;52.098;7.582;2022-11-20T13:18:00;2.30;99.90
23591;DHT22;11973;52.098;7.582;2022-11-20T13:20:27;2.30;99.90
23591;DHT22;11973;52.098;7.582;2022-11-20T13:22:54;2.30;99.90
23591;DHT22;11973;52.098;7.582;2022-11-20T13:25:33;2.30;99.90
23591;DHT22;11973;52.098;7.582;2022-11-20T13:28:03;2.30;99.90
23591;DHT22;11973;52.098;7.582;2022-11-20T13:30:30;2.30;99.90
23591;DHT22;11973;52.098;7.582;2022-11-20T13:33:39;2.20;99.90
23591;DHT22;11973;52.098;7.582;2022-11-20T13:35:55;2.20;99.90
23591;DHT22;11973;52.098;7.582;2022-11-20T13:38:21;2.10;99.90
23591;DHT22;11973;52.098;7.582;2022-11-20T13:40:53;2.00;99.90
23591;DHT22;11973;52.098;7.582;2022-11-20T13:46:04;2.00;99.90
23591;DHT22;11973;52.098;7.582;2022-11-20T13:48:41;2.00;99.90
23591;DHT22;11973;52.098;7.582;2022-11-20T13:57:07;2.00;99.90
23591;DHT22;11973;52.098;7.582;2022-11-20T14:02:14;2.10;99.90
23591;DHT22;11973;52.098;7.582;2022-11-20T14:04:45;2.10;99.90
23591;DHT22;11973;52.098;7.582;2022-11-20T14:07:11;2.10;99.90
23591;DHT22;11973;52.098;7.582;2022-11-20T14:09:37;2.10;99.90
23591;DHT22;11973;52.098;7.582;2022-11-20T14:12:12;2.10;99.90
23591;DHT22;11973;52.098;7.582;2022-11-20T14:14:49;2.10;99.90
23591;DHT22;11973;52.098;7.582;2022-11-20T14:17:29;2.10;99.90
23591;DHT22;11973;52.098;7.582;2022-11-20T14:19:59;2.10;99.90
23591;DHT22;11973;52.098;7.582;2022-11-20T14:22:27;2.00;99.90
23591;DHT22;11973;52.098;7.582;2022-11-20T14:27:34;2.00;99.90
23591;DHT22;11973;52.098;7.582;2022-11-20T14:30:01;1.90;99.90
23591;DHT22;11973;52.098;7.582;2022-11-20T14:32:29;1.90;99.90
23591;DHT22;11973;52.098;7.582;2022-11-20T14:34:59;1.90;99.90
23591;DHT22;11973;52.098;7.582;2022-11-20T14:37:30;1.90;99.90
23591;DHT22;11973;52.098;7.582;2022-11-20T14:39:58;1.90;99.90
23591;DHT22;11973;52.098;7.582;2022-11-20T14:42:27;1.80;99.90
23591;DHT22;11973;52.098;7.582;2022-11-20T14:44:57;1.80;99.90
23591;DHT22;11973;52.098;7.582;2022-11-20T14:47:28;1.80;99.90
23591;DHT22;11973;52.098;7.582;2022-11-20T14:49:55;1.80;99.90
23591;DHT22;11973;52.098;7.582;2022-11-20T14:52:24;1.80;99.90
23591;DHT22;11973;52.098;7.582;2022-11-20T14:54:52;1.80;99.90
23591;DHT22;11973;52.098;7.582;2022-11-20T14:57:27;1.80;99.90
23591;DHT22;11973;52.098;7.582;2022-11-20T15:02:41;1.80;99.90
23591;DHT22;11973;52.098;7.582;2022-11-20T15:05:07;1.80;99.90
23591;DHT22;11973;52.098;7.582;2022-11-20T15:07:36;1.80;99.90
23591;DHT22;11973;52.098;7.582;2022-11-20T15:10:07;1.80;99.90
23591;DHT22;11973;52.098;7.582;2022-11-20T15:12:36;1.70;99.90
23591;DHT22;11973;52.098;7.582;2022-11-20T15:15:03;1.80;99.90
23591;DHT22;11973;52.098;7.582;2022-11-20T15:17:31;1.70;99.90
23591;DHT22;11973;52.098;7.582;2022-11-20T15:19:59;1.70;99.90
23591;DHT22;11973;52.098;7.582;2022-11-20T15:22:26;1.70;99.90
23591;DHT22;11973;52.098;7.582;2022-11-20T15:24:52;1.70;99.90
23591;DHT22;11973;52.098;7.582;2022-11-20T15:27:17;1.70;99.90
23591;DHT22;11973;52.098;7.582;2022-11-20T15:29:43;1.70;99.90
23591;DHT22;11973;52.098;7.582;2022-11-20T15:32:09;1.70;99.90
23591;DHT22;11973;52.098;7.582;2022-11-20T15:34:34;1.70;99.90
23591;DHT22;11973;52.098;7.582;2022-11-20T15:37:00;1.70;99.90
23591;DHT22;11973;52.098;7.582;2022-11-20T15:39:26;1.70;99.90
23591;DHT22;11973;52.098;7.582;2022-11-20T15:41:51;1.70;99.90
23591;DHT22;11973;52.098;7.582;2022-11-20T15:44:17;1.70;99.90
23591;DHT22;11973;52.098;7.582;2022-11-20T15:46:43;1.70;99.90
23591;DHT22;11973;52.098;7.582;2022-11-20T15:49:15;1.70;99.90
23591;DHT22;11973;52.098;7.582;2022-11-20T15:51:44;1.80;99.90
23591;DHT22;11973;52.098;7.582;2022-11-20T15:54:17;1.80;99.90
23591;DHT22;11973;52.098;7.582;2022-11-20T15:56:46;1.80;99.90
23591;DHT22;11973;52.098;7.582;2022-11-20T15:59:12;1.80;99.90
23591;DHT22;11973;52.098;7.582;2022-11-20T16:01:40;1.80;99.90
23591;DHT22;11973;52.098;7.582;2022-11-20T16:04:13;1.80;99.90
23591;DHT22;11973;52.098;7.582;2022-11-20T16:06:39;1.80;99.90
23591;DHT22;11973;52.098;7.582;2022-11-20T16:09:06;1.80;99.90
23591;DHT22;11973;52.098;7.582;2022-11-20T16:11:31;1.80;99.90
23591;DHT22;11973;52.098;7.582;2022-11-20T16:13:57;1.80;99.90
23591;DHT22;11973;52.098;7.582;2022-11-20T16:16:41;1.80;99.90
23591;DHT22;11973;52.098;7.582;2022-11-20T16:19:12;1.80;99.90
23591;DHT22;11973;52.098;7.582;2022-11-20T16:21:38;1.80;99.90
23591;DHT22;11973;52.098;7.582;2022-11-20T16:24:08;1.80;99.90
23591;DHT22;11973;52.098;7.582;2022-11-20T16:26:34;1.80;99.90
23591;DHT22;11973;52.098;7.582;2022-11-20T16:29:01;1.80;99.90
23591;DHT22;11973;52.098;7.582;2022-11-20T16:31:28;1.80;99.90
23591;DHT22;11973;52.098;7.582;2022-11-20T16:33:56;1.80;99.90
23591;DHT22;11973;52.098;7.582;2022-11-20T16:36:23;1.80;99.90
23591;DHT22;11973;52.098;7.582;2022-11-20T16:38:54;1.80;99.90
23591;DHT22;11973;52.098;7.582;2022-11-20T16:41:21;1.80;99.90
23591;DHT22;11973;52.098;7.582;2022-11-20T16:43:52;1.80;99.90
23591;DHT22;11973;52.098;7.582;2022-11-20T16:46:21;1.80;99.90
23591;DHT22;11973;52.098;7.582;2022-11-20T16:49:04;1.80;99.90
23591;DHT22;11973;52.098;7.582;2022-11-20T16:51:34;1.80;99.90
23591;DHT22;11973;52.098;7.582;2022-11-20T16:54:04;1.80;99.90
23591;DHT22;11973;52.098;7.582;2022-11-20T16:56:30;1.80;99.90
23591;DHT22;11973;52.098;7.582;2022-11-20T16:58:58;1.80;99.90
23591;DHT22;11973;52.098;7.582;2022-11-20T17:01:25;1.80;99.90
23591;DHT22;11973;52.098;7.582;2022-11-20T17:03:59;1.80;99.90
23591;DHT22;11973;52.098;7.582;2022-11-20T17:06:27;1.80;99.90
23591;DHT22;11973;52.098;7.582;2022-11-20T17:08:57;1.80;99.90
23591;DHT22;11973;52.098;7.582;2022-11-20T17:11:24;1.80;99.90
23591;DHT22;11973;52.098;7.582;2022-11-20T17:13:50;1.80;99.90
23591;DHT22;11973;52.098;7.582;2022-11-20T17:16:18;1.80;99.90
23591;DHT22;11973;52.098;7.582;2022-11-20T17:18:44;1.90;99.90
23591;DHT22;11973;52.098;7.582;2022-11-20T17:21:11;1.80;99.90
23591;DHT22;11973;52.098;7.582;2022-11-20T17:23:39;1.90;99.90
23591;DHT22;11973;52.098;7.582;2022-11-20T17:26:18;1.90;99.90
23591;DHT22;11973;52.098;7.582;2022-11-20T17:28:51;1.90;99.90
23591;DHT22;11973;52.098;7.582;2022-11-20T17:31:18;1.90;99.90
23591;DHT22;11973;52.098;7.582;2022-11-20T17:33:45;1.90;99.90
23591;DHT22;11973;52.098;7.582;2022-11-20T17:36:13;1.90;99.90
23591;DHT22;11973;52.098;7.582;2022-11-20T17:38:39;1.90;99.90
23591;DHT22;11973;52.098;7.582;2022-11-20T17:43:57;1.90;99.90
23591;DHT22;11973;52.098;7.582;2022-11-20T17:47:22;1.90;99.90
23591;DHT22;11973;52.098;7.582;2022-11-20T17:53:15;1.90;99.90
23591;DHT22;11973;52.098;7.582;2022-11-20T17:55:42;1.90;99.90
23591;DHT22;11973;52.098;7.582;2022-11-20T17:58:27;1.90;99.90
23591;DHT22;11973;52.098;7.582;2022-11-20T18:00:53;1.90;99.90
23591;DHT22;11973;52.098;7.582;2022-11-20T18:03:18;1.90;99.90
23591;DHT22;11973;52.098;7.582;2022-11-20T18:05:44;1.80;99.90
23591;DHT22;11973;52.098;7.582;2022-11-20T18:08:10;1.80;99.90
23591;DHT22;11973;52.098;7.582;2022-11-20T18:10:35;1.80;99.90
23591;DHT22;11973;52.098;7.582;2022-11-20T18:13:01;1.80;99.90
23591;DHT22;11973;52.098;7.582;2022-11-20T18:15:27;1.70;99.90
23591;DHT22;11973;52.098;7.582;2022-11-20T18:17:53;1.70;99.90
23591;DHT22;11973;52.098;7.582;2022-11-20T18:20:19;1.60;99.90
23591;DHT22;11973;52.098;7.582;2022-11-20T18:22:44;1.60;99.90
23591;DHT22;11973;52.098;7.582;2022-11-20T18:25:10;1.60;99.90
23591;DHT22;11973;52.098;7.582;2022-11-20T18:27:36;1.60;99.90
23591;DHT22;11973;52.098;7.582;2022-11-20T18:30:03;1.60;99.90
23591;DHT22;11973;52.098;7.582;2022-11-20T18:32:29;1.50;99.90
23591;DHT22;11973;52.098;7.582;2022-11-20T18:34:54;1.50;99.90
23591;DHT22;11973;52.098;7.582;2022-11-20T18:37:20;1.50;99.90
23591;DHT22;11973;52.098;7.582;2022-11-20T18:39:46;1.50;99.90
23591;DHT22;11973;52.098;7.582;2022-11-20T18:42:15;1.50;99.90